MOOI WEER BOXTEL

Weerstation in Boxtel

Actuele weerinformatie en voorspellingen


Onweer radar Meer informatie blitzortung!


Regen radar Meer informatie rain snow radar


Meer informatie

Template documentation
and downloads

Weblog Hans on Experience

Profiel Hans Mestrum



Het weer levert geen direct gevaar op.    Er zijn geen waarschuwingen afgegeven.

METAR rapporten vliegvelden

   
EHEH - Eindhoven
Gewijzigd: 27-04-2018 07:55
Bewolking  
Bewolking  
   Wind: varieert 3.7 km/h
Wind: varieert 3.7 km/h
Temperatuur: 6°C
Dauwpunt: 3°C
Vochtigheid: 81%
Barometer: 1013 hPa
Bewolking: Bewolking
Zicht: meer dan 10 km
Bewolking: Bewolking 14000 ft
EHEH 270555Z AUTO VRB02KT 9999 OVC140 06/03 Q1013 BLU 16004KT CAVOK
EHVK - Volkel
Gewijzigd: 27-04-2018 07:55
Bewolking  
Bewolking  
   Wind: varieert 1.9 km/h
Wind: varieert 1.9 km/h
Temperatuur: 5°C
Dauwpunt: 3°C
Vochtigheid: 87%
Barometer: 1014 hPa
Bewolking: Bewolking
Zicht: meer dan 10 km
Bewolking: Bewolking 15000 ft
EHVK 270555Z AUTO VRB01KT 9999 OVC150 05/03 Q1014 BLU
EBAW - Antwerpen
Gewijzigd: 27-04-2018 07:50
Helder  
Helder  
   Wind: ZO 3.7 km/h
Wind: ZO 3.7 km/h
Temperatuur: 6°C
Dauwpunt: 4°C
Vochtigheid: 87%
Barometer: 1013 hPa
Zicht: meer dan 10 km
Bewolking: Helder
EBAW 270550Z 13002KT CAVOK 06/04 Q1013 NOSIG
EHBK - Maastricht
Gewijzigd: 27-04-2018 07:55
Gedeeltelijk bewolkt  
Gedeeltelijk bewolkt  
   Wind: ZZO 7.4 km/h
Wind: ZZO 7.4 km/h
Temperatuur: 7°C
Voelt als: 6°C
Dauwpunt: 3°C
Vochtigheid: 76%
Barometer: 1014 hPa
Bewolking: Gedeeltelijk bewolkt
Zicht: meer dan 10 km
Bewolking: Gedeeltelijk bewolkt
EHBK 270555Z AUTO 15004KT 9999 NSC 07/03 Q1014 NOSIG
ELLX - Luxemburg
Gewijzigd: 27-04-2018 07:50
Helder  
Helder  
   Wind: NO 11.1 km/h
Wind: NO 11.1 km/h
Temperatuur: 6°C
Voelt als: 4°C
Dauwpunt: 3°C
Vochtigheid: 81%
Barometer: 1014 hPa
Zicht: meer dan 10 km
Bewolking: Helder
ELLX 270550Z 05006KT CAVOK 06/03 Q1014 NOSIG
 

Script ontwikkeld door  Saratoga-weather.org Aangepast voor de template door  Weerstation Leuven

U vindt ons ook hier:

Het Weer Aktueel

UK Metoffice

European Weather Network

Weather Underground

AWEKAS

Citizen Weather Observer Program (CWOP)

HAMweather, WeatherForYou, PWS Weather

Apparatuur in gebruik:

Weerstation
Davis Vue ISS

Weerprogramma
Meteobridge

Weercomputer
Asus WL -330N3G

Webleverancier
Weerhuisje.nl

Davis Vue ISS

Meteobridge

Asus WL -330N3G

Weerhuisje.nl